Terminal Aerodrome Forecast
Issued by NWS Kansas City/Pleasant Hill, MO

Home | Current Version | Previous Version | Text Only | Print | Product List | Glossary On
Versions: 1 2 3 4 5 6 7 8 9 10 11 12 13 14 15 16
000
FTUS43 KEAX 261200 AAA
TAFMCI
TAF AMD
KMCI 261212Z 2612/2712 20005KT P6SM VCSH OVC070
      TEMPO 2612/2613 BKN004
     FM261400 21008KT P6SM BKN090
     FM261800 23013KT P6SM SCT040
     FM262300 22009KT P6SM SCT050
     FM270300 20006KT P6SM VCSH OVC050=

USA.gov is the U.S. government's official web portal to all federal, state and local government web resources and services.